createdAt,value
2018-03-01T00:00:25.136Z,1010.02
2018-03-01T00:01:25.109Z,1009.96
2018-03-01T00:02:25.118Z,1010.03
2018-03-01T00:03:25.096Z,1010.02
2018-03-01T00:04:25.096Z,1010.04
2018-03-01T00:05:25.090Z,1010.08
2018-03-01T00:06:25.086Z,1010.05
2018-03-01T00:07:25.073Z,1010.02
2018-03-01T00:08:25.073Z,1010.02
2018-03-01T00:09:25.069Z,1010.08
2018-03-01T00:10:25.060Z,1010.06
2018-03-01T00:11:25.065Z,1010.07
2018-03-01T00:12:25.053Z,1010.07
2018-03-01T00:13:25.059Z,1010.01
2018-03-01T00:14:25.042Z,1010.03
2018-03-01T00:15:25.033Z,1010.06
2018-03-01T00:16:25.040Z,1010.00
2018-03-01T00:17:25.021Z,1009.97
2018-03-01T00:18:25.023Z,1009.98
2018-03-01T00:19:25.014Z,1009.95
2018-03-01T00:20:25.009Z,1009.88
2018-03-01T00:21:25.006Z,1009.99
2018-03-01T00:22:24.989Z,1009.86
2018-03-01T00:23:24.999Z,1009.87
2018-03-01T00:24:24.979Z,1009.90
2018-03-01T00:25:24.980Z,1009.83
2018-03-01T00:26:24.979Z,1009.87
2018-03-01T00:27:24.977Z,1009.76
2018-03-01T00:28:24.961Z,1009.77
2018-03-01T00:29:24.959Z,1009.77
2018-03-01T00:30:24.944Z,1009.70
2018-03-01T00:31:24.954Z,1009.75
2018-03-01T00:32:24.946Z,1009.80
2018-03-01T00:33:24.930Z,1009.72
2018-03-01T00:34:24.932Z,1009.72
2018-03-01T00:35:24.915Z,1009.71
2018-03-01T00:36:24.921Z,1009.73
2018-03-01T00:37:24.914Z,1009.73
2018-03-01T00:38:24.910Z,1009.71
2018-03-01T00:39:24.901Z,1009.69
2018-03-01T00:40:24.895Z,1009.67
2018-03-01T00:41:24.882Z,1009.67
2018-03-01T00:42:24.875Z,1009.65
2018-03-01T00:43:24.872Z,1009.70
2018-03-01T00:44:24.884Z,1009.65
2018-03-01T00:45:24.872Z,1009.64
2018-03-01T00:46:24.865Z,1009.67
2018-03-01T00:47:24.852Z,1009.67
2018-03-01T00:48:24.850Z,1009.68
2018-03-01T00:49:24.864Z,1009.71
2018-03-01T00:50:24.839Z,1009.73
2018-03-01T00:51:24.832Z,1009.77
2018-03-01T00:52:24.834Z,1009.70
2018-03-01T00:53:24.825Z,1009.70
2018-03-01T00:54:24.819Z,1009.73
2018-03-01T00:55:24.820Z,1009.60
2018-03-01T00:56:24.808Z,1009.69
2018-03-01T00:57:24.808Z,1009.64
2018-03-01T00:58:24.797Z,1009.68
2018-03-01T00:59:24.786Z,1009.68
2018-03-01T01:00:24.781Z,1009.66
2018-03-01T01:01:24.785Z,1009.66
2018-03-01T01:02:24.773Z,1009.70
2018-03-01T01:03:24.782Z,1009.63
2018-03-01T01:04:24.766Z,1009.69
2018-03-01T01:05:24.760Z,1009.72
2018-03-01T01:06:24.746Z,1009.72
2018-03-01T01:07:24.740Z,1009.71
2018-03-01T01:08:24.744Z,1009.75
2018-03-01T01:09:24.726Z,1009.74
2018-03-01T01:10:24.729Z,1009.72
2018-03-01T01:11:24.720Z,1009.72
2018-03-01T01:12:24.726Z,1009.75
2018-03-01T01:13:24.710Z,1009.72
2018-03-01T01:14:24.705Z,1009.72
2018-03-01T01:15:24.691Z,1009.72
2018-03-01T01:16:24.691Z,1009.72
2018-03-01T01:17:24.693Z,1009.70
2018-03-01T01:18:24.682Z,1009.71
2018-03-01T01:19:24.676Z,1009.66
2018-03-01T01:20:24.671Z,1009.64
2018-03-01T01:21:24.665Z,1009.57
2018-03-01T01:22:24.660Z,1009.59
2018-03-01T01:23:24.652Z,1009.65
2018-03-01T01:24:24.650Z,1009.58
2018-03-01T01:25:24.645Z,1009.60
2018-03-01T01:26:24.643Z,1009.58
2018-03-01T01:27:24.631Z,1009.53
2018-03-01T01:28:24.621Z,1009.56
2018-03-01T01:29:24.640Z,1009.50
2018-03-01T01:30:24.611Z,1009.51
2018-03-01T01:31:24.611Z,1009.51
2018-03-01T01:32:24.604Z,1009.47
2018-03-01T01:33:24.602Z,1009.48
2018-03-01T01:34:24.596Z,1009.43
2018-03-01T01:35:24.595Z,1009.43
2018-03-01T01:36:24.605Z,1009.43
2018-03-01T01:37:24.569Z,1009.45
2018-03-01T01:38:24.578Z,1009.44
2018-03-01T01:39:24.564Z,1009.43
2018-03-01T01:40:24.562Z,1009.37
2018-03-01T01:41:24.550Z,1009.41
2018-03-01T01:42:24.555Z,1009.44
2018-03-01T01:43:24.535Z,1009.42
2018-03-01T01:44:24.531Z,1009.39
2018-03-01T01:45:24.531Z,1009.37
2018-03-01T01:46:24.520Z,1009.28
2018-03-01T01:47:24.521Z,1009.24
2018-03-01T01:48:24.524Z,1009.21
2018-03-01T01:49:24.503Z,1009.18
2018-03-01T01:50:24.500Z,1009.14
2018-03-01T01:51:24.501Z,1009.17
2018-03-01T01:52:24.491Z,1009.09
2018-03-01T01:53:24.485Z,1009.11
2018-03-01T01:54:24.481Z,1009.04
2018-03-01T01:55:24.467Z,1009.06
2018-03-01T01:56:24.468Z,1009.02
2018-03-01T01:57:24.461Z,1009.04
2018-03-01T01:58:24.452Z,1009.10
2018-03-01T01:59:25.197Z,1008.96
2018-03-01T02:00:24.441Z,1008.93
2018-03-01T02:01:24.432Z,1009.07
2018-03-01T02:02:24.425Z,1008.98
2018-03-01T02:03:24.437Z,1008.95
2018-03-01T02:04:24.420Z,1008.98
2018-03-01T02:05:24.411Z,1008.89
2018-03-01T02:06:24.405Z,1008.85
2018-03-01T02:07:24.408Z,1008.88
2018-03-01T02:08:24.398Z,1008.87
2018-03-01T02:09:24.407Z,1008.89
2018-03-01T02:10:24.386Z,1008.88
2018-03-01T02:11:24.380Z,1008.92
2018-03-01T02:12:24.376Z,1008.91
2018-03-01T02:13:24.372Z,1008.86
2018-03-01T02:14:24.361Z,1008.84
2018-03-01T02:15:24.357Z,1008.77
2018-03-01T02:16:24.351Z,1008.71
2018-03-01T02:17:24.361Z,1008.81
2018-03-01T02:18:24.338Z,1008.67
2018-03-01T02:19:24.327Z,1008.65
2018-03-01T02:20:24.327Z,1008.54
2018-03-01T02:21:24.332Z,1008.64
2018-03-01T02:22:24.318Z,1008.56
2018-03-01T02:23:24.311Z,1008.56
2018-03-01T02:24:24.306Z,1008.42
2018-03-01T02:25:24.303Z,1008.43
2018-03-01T02:26:24.300Z,1008.40
2018-03-01T02:27:24.287Z,1008.37
2018-03-01T02:28:24.281Z,1008.31
2018-03-01T02:29:24.281Z,1008.35
2018-03-01T02:30:24.276Z,1008.30
2018-03-01T02:31:24.281Z,1008.27
2018-03-01T02:32:24.268Z,1008.21
2018-03-01T02:33:24.261Z,1008.26
2018-03-01T02:34:24.256Z,1008.27
2018-03-01T02:35:24.273Z,1008.23
2018-03-01T02:36:24.249Z,1008.23
2018-03-01T02:37:24.239Z,1008.19
2018-03-01T02:38:24.227Z,1008.35
2018-03-01T02:39:24.229Z,1008.20
2018-03-01T02:40:24.219Z,1008.17
2018-03-01T02:41:24.214Z,1008.20
2018-03-01T02:42:24.209Z,1008.10
2018-03-01T02:43:24.199Z,1008.05
2018-03-01T02:44:24.203Z,1007.99
2018-03-01T02:45:24.198Z,1008.02
2018-03-01T02:46:24.186Z,1007.98
2018-03-01T02:47:24.174Z,1008.00
2018-03-01T02:48:24.173Z,1007.88
2018-03-01T02:49:24.173Z,1007.87
2018-03-01T02:50:24.157Z,1007.85
2018-03-01T02:51:24.155Z,1007.84
2018-03-01T02:52:24.160Z,1007.84
2018-03-01T02:53:24.146Z,1007.88
2018-03-01T02:54:24.136Z,1007.83
2018-03-01T02:55:24.136Z,1007.78
2018-03-01T02:56:24.132Z,1007.71
2018-03-01T02:57:24.122Z,1007.69
2018-03-01T02:58:24.173Z,1007.65
2018-03-01T02:59:24.718Z,1007.63
2018-03-01T03:00:24.116Z,1007.65
2018-03-01T03:01:24.107Z,1007.61
2018-03-01T03:02:24.092Z,1007.60
2018-03-01T03:03:24.097Z,1007.51
2018-03-01T03:04:24.087Z,1007.53
2018-03-01T03:05:24.084Z,1007.50
2018-03-01T03:06:24.077Z,1007.52
2018-03-01T03:07:24.073Z,1007.57
2018-03-01T03:08:24.062Z,1007.61
2018-03-01T03:09:24.063Z,1007.65
2018-03-01T03:10:24.047Z,1007.59
2018-03-01T03:11:24.048Z,1007.63
2018-03-01T03:12:24.053Z,1007.52
2018-03-01T03:13:24.034Z,1007.53
2018-03-01T03:14:24.027Z,1007.49
2018-03-01T03:15:24.018Z,1007.55
2018-03-01T03:16:24.020Z,1007.51
2018-03-01T03:17:24.008Z,1007.54
2018-03-01T03:18:24.006Z,1007.45
2018-03-01T03:19:23.994Z,1007.52
2018-03-01T03:20:24.002Z,1007.44
2018-03-01T03:21:23.989Z,1007.45
2018-03-01T03:22:23.984Z,1007.41
2018-03-01T03:23:23.979Z,1007.35
2018-03-01T03:24:23.998Z,1007.37
2018-03-01T03:25:23.973Z,1007.32
2018-03-01T03:26:23.962Z,1007.27
2018-03-01T03:27:23.955Z,1007.32
2018-03-01T03:28:23.947Z,1007.26
2018-03-01T03:29:23.949Z,1007.25
2018-03-01T03:30:23.934Z,1007.22
2018-03-01T03:31:23.936Z,1007.20
2018-03-01T03:32:23.931Z,1007.21
2018-03-01T03:33:23.915Z,1007.22
2018-03-01T03:34:23.930Z,1007.18
2018-03-01T03:35:23.914Z,1007.18
2018-03-01T03:36:23.903Z,1007.14
2018-03-01T03:37:23.898Z,1007.17
2018-03-01T03:38:23.904Z,1007.16
2018-03-01T03:39:23.887Z,1007.18
2018-03-01T03:40:23.883Z,1007.16
2018-03-01T03:41:23.879Z,1007.23
2018-03-01T03:42:23.869Z,1007.13
2018-03-01T03:43:23.874Z,1007.29
2018-03-01T03:44:23.859Z,1007.17
2018-03-01T03:45:23.845Z,1007.14
2018-03-01T03:46:23.847Z,1007.09
2018-03-01T03:47:23.845Z,1007.10
2018-03-01T03:48:23.852Z,1007.07
2018-03-01T03:49:23.834Z,1007.13
2018-03-01T03:50:23.828Z,1007.10
2018-03-01T03:51:23.825Z,1007.12
2018-03-01T03:52:23.821Z,1007.11
2018-03-01T03:53:23.805Z,1007.11
2018-03-01T03:54:23.799Z,1007.13
2018-03-01T03:55:23.798Z,1007.18
2018-03-01T03:56:23.789Z,1007.11
2018-03-01T03:57:23.805Z,1007.03
2018-03-01T03:58:23.770Z,1007.11
2018-03-01T03:59:23.772Z,1007.09
2018-03-01T04:00:23.769Z,1007.08
2018-03-01T04:01:23.758Z,1007.05
2018-03-01T04:02:23.759Z,1007.06
2018-03-01T04:03:23.754Z,1007.11
2018-03-01T04:04:23.740Z,1007.10
2018-03-01T04:05:23.741Z,1007.15
2018-03-01T04:06:23.738Z,1007.03
2018-03-01T04:07:23.733Z,1007.16
2018-03-01T04:08:23.719Z,1007.23
2018-03-01T04:09:23.709Z,1007.15
2018-03-01T04:10:23.726Z,1007.19
2018-03-01T04:11:23.699Z,1007.22
2018-03-01T04:12:23.703Z,1007.22
2018-03-01T04:13:23.696Z,1007.24
2018-03-01T04:14:23.690Z,1007.30
2018-03-01T04:15:23.683Z,1007.28
2018-03-01T04:16:23.678Z,1007.28
2018-03-01T04:17:23.668Z,1007.32
2018-03-01T04:18:23.669Z,1007.40
2018-03-01T04:19:23.664Z,1007.41
2018-03-01T04:20:23.663Z,1007.40
2018-03-01T04:21:23.649Z,1007.36
2018-03-01T04:22:23.640Z,1007.31
2018-03-01T04:23:23.634Z,1007.37
2018-03-01T04:24:23.630Z,1007.28
2018-03-01T04:25:23.623Z,1007.27
2018-03-01T04:26:23.623Z,1007.28
2018-03-01T04:27:23.618Z,1007.16
2018-03-01T04:28:23.609Z,1007.15
2018-03-01T04:29:23.610Z,1007.18
2018-03-01T04:30:23.595Z,1007.17
2018-03-01T04:31:23.579Z,1007.09
2018-03-01T04:32:23.586Z,1007.10
2018-03-01T04:33:23.583Z,1007.05
2018-03-01T04:34:23.571Z,1007.07
2018-03-01T04:35:23.571Z,1006.87
2018-03-01T04:36:23.559Z,1006.78
2018-03-01T04:37:23.559Z,1006.76
2018-03-01T04:38:23.546Z,1006.71
2018-03-01T04:39:23.550Z,1006.64
2018-03-01T04:40:23.555Z,1006.63
2018-03-01T04:41:23.540Z,1006.67
2018-03-01T04:42:23.540Z,1006.66
2018-03-01T04:43:23.527Z,1006.70
2018-03-01T04:44:23.531Z,1006.69
2018-03-01T04:45:23.505Z,1006.72
2018-03-01T04:46:23.507Z,1006.72
2018-03-01T04:47:23.496Z,1006.70
2018-03-01T04:48:23.491Z,1006.69
2018-03-01T04:49:23.486Z,1006.73
2018-03-01T04:50:23.497Z,1006.76
2018-03-01T04:51:23.477Z,1006.72
2018-03-01T04:52:23.472Z,1006.75
2018-03-01T04:53:23.464Z,1006.71
2018-03-01T04:54:23.470Z,1006.71
2018-03-01T04:55:23.454Z,1006.73
2018-03-01T04:56:23.450Z,1006.79
2018-03-01T04:57:23.440Z,1006.72
2018-03-01T04:58:23.450Z,1006.78
2018-03-01T04:59:23.439Z,1006.71
2018-03-01T05:00:23.431Z,1006.67
2018-03-01T05:01:23.424Z,1006.70
2018-03-01T05:02:23.421Z,1006.69
2018-03-01T05:03:23.411Z,1006.69
2018-03-01T05:04:23.411Z,1006.69
2018-03-01T05:05:23.404Z,1006.75
2018-03-01T05:06:23.391Z,1006.73
2018-03-01T05:07:23.396Z,1006.70
2018-03-01T05:08:23.385Z,1006.73
2018-03-01T05:09:23.370Z,1006.73
2018-03-01T05:10:23.370Z,1006.78
2018-03-01T05:11:23.374Z,1006.85
2018-03-01T05:12:23.356Z,1006.81
2018-03-01T05:13:23.361Z,1006.78
2018-03-01T05:14:23.359Z,1006.81
2018-03-01T05:15:23.350Z,1006.85
2018-03-01T05:16:23.347Z,1006.83
2018-03-01T05:17:23.327Z,1006.87
2018-03-01T05:18:23.334Z,1006.93
2018-03-01T05:19:23.316Z,1006.85
2018-03-01T05:20:23.314Z,1006.85
2018-03-01T05:21:23.309Z,1006.84
2018-03-01T05:22:23.295Z,1006.83
2018-03-01T05:23:23.310Z,1006.92
2018-03-01T05:24:23.305Z,1006.87
2018-03-01T05:25:23.287Z,1006.88
2018-03-01T05:26:23.286Z,1006.90
2018-03-01T05:27:23.281Z,1006.93
2018-03-01T05:28:23.281Z,1006.94
2018-03-01T05:29:23.266Z,1006.98
2018-03-01T05:30:23.261Z,1006.86
2018-03-01T05:31:23.256Z,1006.93
2018-03-01T05:32:23.250Z,1006.98
2018-03-01T05:33:23.237Z,1006.87
2018-03-01T05:34:23.242Z,1006.87
2018-03-01T05:35:23.235Z,1006.81
2018-03-01T05:36:23.222Z,1006.84
2018-03-01T05:37:23.278Z,1006.89
2018-03-01T05:38:23.215Z,1006.77
2018-03-01T05:39:23.207Z,1006.84
2018-03-01T05:40:23.217Z,1006.80
2018-03-01T05:41:23.200Z,1006.76
2018-03-01T05:42:23.192Z,1006.73
2018-03-01T05:43:23.193Z,1006.73
2018-03-01T05:44:23.181Z,1006.70
2018-03-01T05:45:23.175Z,1006.66
2018-03-01T05:46:23.171Z,1006.61
2018-03-01T05:47:23.166Z,1006.56
2018-03-01T05:48:23.162Z,1006.55
2018-03-01T05:49:23.158Z,1006.51
2018-03-01T05:50:23.146Z,1006.53
2018-03-01T05:51:23.145Z,1006.51
2018-03-01T05:52:23.146Z,1006.51
2018-03-01T05:53:23.143Z,1006.51
2018-03-01T05:54:23.135Z,1006.52
2018-03-01T05:55:23.120Z,1006.54
2018-03-01T05:56:23.116Z,1006.46
2018-03-01T05:57:23.122Z,1006.46
2018-03-01T05:58:23.100Z,1006.49
2018-03-01T05:59:23.097Z,1006.45
2018-03-01T06:00:23.087Z,1006.43
2018-03-01T06:01:23.092Z,1006.46
2018-03-01T06:02:23.078Z,1006.50
2018-03-01T06:03:23.067Z,1006.44
2018-03-01T06:04:23.071Z,1006.50
2018-03-01T06:05:23.061Z,1006.52
2018-03-01T06:06:23.060Z,1006.49
2018-03-01T06:07:23.053Z,1006.57
2018-03-01T06:08:23.052Z,1006.58
2018-03-01T06:09:23.060Z,1006.60
2018-03-01T06:10:23.039Z,1006.64
2018-03-01T06:11:23.031Z,1006.60
2018-03-01T06:12:23.032Z,1006.57
2018-03-01T06:13:23.026Z,1006.57
2018-03-01T06:14:23.015Z,1006.54
2018-03-01T06:15:23.011Z,1006.58
2018-03-01T06:16:22.998Z,1006.50
2018-03-01T06:17:22.997Z,1006.56
2018-03-01T06:18:22.991Z,1006.61
2018-03-01T06:19:22.995Z,1006.63
2018-03-01T06:20:22.991Z,1006.69
2018-03-01T06:21:22.967Z,1006.65
2018-03-01T06:22:22.966Z,1006.66
2018-03-01T06:23:22.960Z,1006.61
2018-03-01T06:24:22.951Z,1006.64
2018-03-01T06:25:22.950Z,1006.67
2018-03-01T06:26:22.948Z,1006.60
2018-03-01T06:27:22.934Z,1006.58
2018-03-01T06:28:22.941Z,1006.64
2018-03-01T06:29:22.925Z,1006.58
2018-03-01T06:30:22.913Z,1006.63
2018-03-01T06:31:22.915Z,1006.66
2018-03-01T06:32:22.909Z,1006.61
2018-03-01T06:33:22.912Z,1006.61
2018-03-01T06:34:22.904Z,1006.67
2018-03-01T06:35:22.889Z,1006.68
2018-03-01T06:36:22.897Z,1006.59
2018-03-01T06:37:22.883Z,1006.64
2018-03-01T06:38:22.874Z,1006.66
2018-03-01T06:39:22.872Z,1006.55
2018-03-01T06:40:22.867Z,1006.57
2018-03-01T06:41:22.866Z,1006.46
2018-03-01T06:42:22.853Z,1006.46
2018-03-01T06:43:22.852Z,1006.41
2018-03-01T06:44:22.847Z,1006.38
2018-03-01T06:45:22.842Z,1006.39
2018-03-01T06:46:22.828Z,1006.36
2018-03-01T06:47:22.824Z,1006.49
2018-03-01T06:48:22.822Z,1006.46
2018-03-01T06:49:22.814Z,1006.43
2018-03-01T06:50:22.806Z,1006.37
2018-03-01T06:51:22.801Z,1006.40
2018-03-01T06:52:22.796Z,1006.37
2018-03-01T06:53:22.797Z,1006.40
2018-03-01T06:54:22.781Z,1006.45
2018-03-01T06:55:22.778Z,1006.40
2018-03-01T06:56:22.779Z,1006.33
2018-03-01T06:57:22.772Z,1006.33
2018-03-01T06:58:22.769Z,1006.39
2018-03-01T06:59:22.763Z,1006.34
2018-03-01T07:00:22.759Z,1006.29
2018-03-01T07:01:22.750Z,1006.26
2018-03-01T07:02:22.733Z,1006.29
2018-03-01T07:03:22.739Z,1006.30
2018-03-01T07:04:22.723Z,1006.31
2018-03-01T07:05:22.726Z,1006.31
2018-03-01T07:06:22.713Z,1006.32
2018-03-01T07:07:22.720Z,1006.34
2018-03-01T07:08:22.723Z,1006.35
2018-03-01T07:09:22.707Z,1006.30
2018-03-01T07:10:22.692Z,1006.29
2018-03-01T07:11:22.693Z,1006.25
2018-03-01T07:12:22.683Z,1006.23
2018-03-01T07:13:22.683Z,1006.20
2018-03-01T07:14:22.685Z,1006.20
2018-03-01T07:15:22.667Z,1006.27
2018-03-01T07:16:22.663Z,1006.27
2018-03-01T07:17:22.653Z,1006.28
2018-03-01T07:18:22.655Z,1006.25
2018-03-01T07:19:22.648Z,1006.31
2018-03-01T07:20:22.647Z,1006.31
2018-03-01T07:21:22.632Z,1006.28
2018-03-01T07:22:22.634Z,1006.28
2018-03-01T07:23:22.629Z,1006.33
2018-03-01T07:24:22.615Z,1006.32
2018-03-01T07:25:22.615Z,1006.32
2018-03-01T07:26:22.609Z,1006.36
2018-03-01T07:27:22.596Z,1006.40
2018-03-01T07:28:22.600Z,1006.42
2018-03-01T07:29:22.588Z,1006.41
2018-03-01T07:30:22.584Z,1006.39
2018-03-01T07:31:22.578Z,1006.35
2018-03-01T07:32:22.578Z,1006.29
2018-03-01T07:33:22.569Z,1006.39
2018-03-01T07:34:22.564Z,1006.26
2018-03-01T07:35:22.558Z,1006.22
2018-03-01T07:36:22.553Z,1006.15
2018-03-01T07:37:22.548Z,1006.12
2018-03-01T07:38:22.552Z,1006.12
2018-03-01T07:39:22.529Z,1006.11
2018-03-01T07:40:22.535Z,1006.08
2018-03-01T07:41:22.529Z,1006.13
2018-03-01T07:42:22.520Z,1006.07
2018-03-01T07:43:22.517Z,1005.99
2018-03-01T07:44:22.534Z,1005.97
2018-03-01T07:45:22.503Z,1006.01
2018-03-01T07:46:22.506Z,1005.96
2018-03-01T07:47:22.489Z,1005.94
2018-03-01T07:48:22.477Z,1005.84
2018-03-01T07:49:22.478Z,1005.89
2018-03-01T07:50:22.488Z,1005.91
2018-03-01T07:51:22.466Z,1005.91
2018-03-01T07:52:22.465Z,1005.90
2018-03-01T07:53:22.460Z,1005.89
2018-03-01T07:54:22.444Z,1005.86
2018-03-01T07:55:22.444Z,1005.84
2018-03-01T07:56:22.435Z,1005.86
2018-03-01T07:57:22.436Z,1005.86
2018-03-01T07:58:22.425Z,1005.83
2018-03-01T07:59:22.424Z,1005.85
2018-03-01T08:00:22.418Z,1005.81
2018-03-01T08:01:22.411Z,1005.87
2018-03-01T08:02:22.417Z,1005.88
2018-03-01T08:03:22.399Z,1005.87
2018-03-01T08:04:22.406Z,1005.91
2018-03-01T08:05:22.384Z,1005.85
2018-03-01T08:06:22.384Z,1005.86
2018-03-01T08:07:22.371Z,1005.86
2018-03-01T08:08:22.375Z,1005.77
2018-03-01T08:09:22.374Z,1005.79
2018-03-01T08:10:22.369Z,1005.71
2018-03-01T08:11:22.365Z,1005.77
2018-03-01T08:12:22.353Z,1005.67
2018-03-01T08:13:22.352Z,1005.60
2018-03-01T08:14:22.349Z,1005.61
2018-03-01T08:15:22.334Z,1005.61
2018-03-01T08:16:22.326Z,1005.60
2018-03-01T08:17:22.320Z,1005.59
2018-03-01T08:18:22.308Z,1005.58
2018-03-01T08:19:22.313Z,1005.60
2018-03-01T08:20:22.306Z,1005.64
2018-03-01T08:21:22.313Z,1005.63
2018-03-01T08:22:22.304Z,1005.66
2018-03-01T08:23:22.280Z,1005.65
2018-03-01T08:24:22.289Z,1005.63
2018-03-01T08:25:22.338Z,1005.59
2018-03-01T08:26:22.265Z,1005.62
2018-03-01T08:27:22.270Z,1005.61
2018-03-01T08:28:22.255Z,1005.52
2018-03-01T08:29:22.249Z,1005.48
2018-03-01T08:30:22.258Z,1005.53
2018-03-01T08:31:22.270Z,1005.50
2018-03-01T08:32:22.238Z,1005.57
2018-03-01T08:33:22.221Z,1005.64
2018-03-01T08:34:22.236Z,1005.53
2018-03-01T08:35:22.224Z,1005.50
2018-03-01T08:36:22.209Z,1005.49
2018-03-01T08:37:22.220Z,1005.45
2018-03-01T08:38:22.205Z,1005.55
2018-03-01T08:39:22.194Z,1005.52
2018-03-01T08:40:22.190Z,1005.51
2018-03-01T08:41:22.183Z,1005.49
2018-03-01T08:42:22.179Z,1005.52
2018-03-01T08:43:22.176Z,1005.46
2018-03-01T08:44:22.169Z,1005.43
2018-03-01T08:45:22.166Z,1005.44
2018-03-01T08:46:22.154Z,1005.39
2018-03-01T08:47:22.148Z,1005.31
2018-03-01T08:48:22.144Z,1005.32
2018-03-01T08:49:22.135Z,1005.25
2018-03-01T08:50:22.136Z,1005.21
2018-03-01T08:51:22.131Z,1005.20
2018-03-01T08:52:22.121Z,1005.15
2018-03-01T08:53:22.119Z,1005.17
2018-03-01T08:54:22.109Z,1005.17
2018-03-01T08:55:22.106Z,1005.11
2018-03-01T08:56:22.092Z,1005.10
2018-03-01T08:57:22.113Z,1005.11
2018-03-01T08:58:22.117Z,1005.19
2018-03-01T08:59:22.084Z,1005.15
2018-03-01T09:00:22.077Z,1005.08
2018-03-01T09:01:22.089Z,1005.02
2018-03-01T09:02:22.073Z,1005.02
2018-03-01T09:03:22.068Z,1005.07
2018-03-01T09:04:22.056Z,1005.05
2018-03-01T09:05:22.041Z,1004.97
2018-03-01T09:06:22.062Z,1004.94
2018-03-01T09:07:22.039Z,1004.93
2018-03-01T09:08:22.038Z,1004.92
2018-03-01T09:09:22.040Z,1004.99
2018-03-01T09:10:22.027Z,1004.88
2018-03-01T09:11:22.035Z,1004.86
2018-03-01T09:12:22.015Z,1004.83
2018-03-01T09:13:21.996Z,1004.87
2018-03-01T09:14:22.011Z,1004.90
2018-03-01T09:15:22.004Z,1004.78
2018-03-01T09:16:21.986Z,1004.77
2018-03-01T09:17:21.984Z,1004.76
2018-03-01T09:18:21.995Z,1004.68
2018-03-01T09:19:21.994Z,1004.59
2018-03-01T09:20:21.970Z,1004.65
2018-03-01T09:21:21.965Z,1004.56
2018-03-01T09:22:21.966Z,1004.57
2018-03-01T09:23:21.962Z,1004.54
2018-03-01T09:24:21.960Z,1004.49
2018-03-01T09:25:21.942Z,1004.50
2018-03-01T09:26:21.934Z,1004.52
2018-03-01T09:27:21.935Z,1004.46
2018-03-01T09:28:21.930Z,1004.48
2018-03-01T09:29:21.938Z,1004.45
2018-03-01T09:30:21.925Z,1004.45
2018-03-01T09:31:21.915Z,1004.42
2018-03-01T09:32:21.904Z,1004.39
2018-03-01T09:33:21.900Z,1004.36
2018-03-01T09:34:21.891Z,1004.35
2018-03-01T09:35:21.890Z,1004.38
2018-03-01T09:36:21.886Z,1004.30
2018-03-01T09:37:21.884Z,1004.29
2018-03-01T09:38:21.876Z,1004.38
2018-03-01T09:39:21.874Z,1004.29
2018-03-01T09:40:21.862Z,1004.31
2018-03-01T09:41:21.867Z,1004.41
2018-03-01T09:42:21.866Z,1004.29
2018-03-01T09:43:21.852Z,1004.26
2018-03-01T09:44:21.837Z,1004.24
2018-03-01T09:45:21.835Z,1004.23
2018-03-01T09:46:21.832Z,1004.22
2018-03-01T09:47:21.827Z,1004.35
2018-03-01T09:48:21.825Z,1004.35
2018-03-01T09:49:21.845Z,1004.27
2018-03-01T09:50:21.825Z,1004.32
2018-03-01T09:51:21.814Z,1004.26
2018-03-01T09:52:21.803Z,1004.25
2018-03-01T09:53:21.803Z,1004.10
2018-03-01T09:54:21.795Z,1004.10
2018-03-01T09:55:21.812Z,1004.12
2018-03-01T09:56:21.782Z,1004.12
2018-03-01T09:57:21.790Z,1004.02
2018-03-01T09:58:21.773Z,1004.04
2018-03-01T09:59:21.770Z,1004.08
2018-03-01T10:00:21.771Z,1004.07
2018-03-01T10:01:21.756Z,1004.15
2018-03-01T10:02:21.751Z,1004.10
2018-03-01T10:03:21.747Z,1004.12
2018-03-01T10:04:21.731Z,1004.12
2018-03-01T10:05:21.727Z,1004.01
2018-03-01T10:06:21.723Z,1004.10
2018-03-01T10:07:21.731Z,1004.18
2018-03-01T10:08:21.722Z,1004.20
2018-03-01T10:09:21.717Z,1004.21
2018-03-01T10:10:21.721Z,1004.12
2018-03-01T10:11:21.718Z,1004.13
2018-03-01T10:12:21.702Z,1004.20
2018-03-01T10:13:21.697Z,1004.11
2018-03-01T10:14:21.696Z,1004.13
2018-03-01T10:15:21.687Z,1004.11
2018-03-01T10:16:21.684Z,1004.15
2018-03-01T10:17:21.677Z,1004.15
2018-03-01T10:18:21.683Z,1004.07
2018-03-01T10:19:21.661Z,1004.09
2018-03-01T10:20:21.663Z,1004.09
2018-03-01T10:21:21.660Z,1004.02
2018-03-01T10:22:21.646Z,1003.96
2018-03-01T10:23:21.638Z,1004.05
2018-03-01T10:24:21.632Z,1004.00
2018-03-01T10:25:21.637Z,1003.98
2018-03-01T10:26:21.631Z,1004.00
2018-03-01T10:27:21.618Z,1003.96
2018-03-01T10:28:21.637Z,1004.03
2018-03-01T10:29:21.618Z,1004.03
2018-03-01T10:30:21.608Z,1004.03
2018-03-01T10:31:21.599Z,1004.05
2018-03-01T10:32:21.607Z,1004.06
2018-03-01T10:33:21.581Z,1004.00
2018-03-01T10:34:21.607Z,1003.96
2018-03-01T10:35:21.586Z,1003.94
2018-03-01T10:36:21.583Z,1003.91
2018-03-01T10:37:21.569Z,1003.91
2018-03-01T10:38:21.566Z,1003.79
2018-03-01T10:39:21.558Z,1003.80
2018-03-01T10:40:21.554Z,1003.72
2018-03-01T10:41:21.561Z,1003.74
2018-03-01T10:42:21.548Z,1003.72
2018-03-01T10:43:21.537Z,1003.62
2018-03-01T10:44:21.524Z,1003.58
2018-03-01T10:45:21.542Z,1003.67
2018-03-01T10:46:21.517Z,1003.62
2018-03-01T10:47:21.518Z,1003.59
2018-03-01T10:48:21.517Z,1003.55
2018-03-01T10:49:21.497Z,1003.69
2018-03-01T10:50:21.513Z,1003.48
2018-03-01T10:51:21.501Z,1003.55
2018-03-01T10:52:21.504Z,1003.45
2018-03-01T10:53:21.543Z,1003.45
2018-03-01T10:54:21.478Z,1003.51
2018-03-01T10:55:21.484Z,1003.42
2018-03-01T10:56:21.467Z,1003.44
2018-03-01T10:57:21.462Z,1003.41
2018-03-01T10:58:21.474Z,1003.45
2018-03-01T10:59:21.453Z,1003.48
2018-03-01T11:00:21.466Z,1003.44
2018-03-01T11:01:21.444Z,1003.46
2018-03-01T11:02:21.440Z,1003.47
2018-03-01T11:03:21.432Z,1003.46
2018-03-01T11:04:21.433Z,1003.39
2018-03-01T11:05:21.432Z,1003.38
2018-03-01T11:06:21.433Z,1003.27
2018-03-01T11:07:21.416Z,1003.19
2018-03-01T11:08:21.418Z,1003.22
2018-03-01T11:09:21.413Z,1003.27
2018-03-01T11:10:21.394Z,1003.21
2018-03-01T11:11:21.395Z,1003.21
2018-03-01T11:12:21.386Z,1003.13
2018-03-01T11:13:21.382Z,1003.19
2018-03-01T11:14:21.379Z,1003.16
2018-03-01T11:15:21.371Z,1003.10
2018-03-01T11:16:21.380Z,1003.02
2018-03-01T11:17:21.364Z,1003.02
2018-03-01T11:18:21.355Z,1002.98
2018-03-01T11:19:21.349Z,1003.03
2018-03-01T11:20:21.350Z,1002.96
2018-03-01T11:21:21.338Z,1002.95
2018-03-01T11:22:21.333Z,1002.88
2018-03-01T11:23:21.343Z,1002.96
2018-03-01T11:24:21.332Z,1002.84
2018-03-01T11:25:21.319Z,1002.84
2018-03-01T11:26:21.313Z,1002.86
2018-03-01T11:27:21.313Z,1002.87
2018-03-01T11:28:21.314Z,1002.80
2018-03-01T11:29:21.309Z,1002.75
2018-03-01T11:30:21.297Z,1002.72
2018-03-01T11:31:21.292Z,1002.70
2018-03-01T11:32:21.288Z,1002.69
2018-03-01T11:33:21.276Z,1002.65
2018-03-01T11:34:21.277Z,1002.65
2018-03-01T11:35:21.287Z,1002.66
2018-03-01T11:36:21.264Z,1002.59
2018-03-01T11:37:21.263Z,1002.62
2018-03-01T11:38:21.252Z,1002.55
2018-03-01T11:39:21.243Z,1002.58
2018-03-01T11:40:21.243Z,1002.53
2018-03-01T11:41:21.234Z,1002.55
2018-03-01T11:42:21.228Z,1002.52
2018-03-01T11:43:21.243Z,1002.60
2018-03-01T11:44:21.219Z,1002.38
2018-03-01T11:45:21.219Z,1002.39
2018-03-01T11:46:21.207Z,1002.34
2018-03-01T11:47:21.219Z,1002.37
2018-03-01T11:48:21.212Z,1002.32
2018-03-01T11:49:21.204Z,1002.34
2018-03-01T11:50:21.189Z,1002.37
2018-03-01T11:51:21.193Z,1002.38
2018-03-01T11:52:21.190Z,1002.30
2018-03-01T11:53:21.181Z,1002.33
2018-03-01T11:54:21.204Z,1002.28
2018-03-01T11:55:21.172Z,1002.25
2018-03-01T11:56:21.149Z,1002.37
2018-03-01T11:57:21.151Z,1002.25
2018-03-01T11:58:21.153Z,1002.21
2018-03-01T11:59:21.138Z,1002.23
2018-03-01T12:00:21.133Z,1002.20
2018-03-01T12:01:21.148Z,1002.23
2018-03-01T12:02:21.124Z,1002.22
2018-03-01T12:03:21.125Z,1002.17
2018-03-01T12:04:21.112Z,1002.14
2018-03-01T12:05:21.123Z,1002.13